Saint Louis, Missouri
Traffic Map
Current Weather Conditions
Saint Louis, Missouri
Clear
Clear
63°
Feels Like: 63°
Wind Chill: 63° Ceiling: Unl
Heat Index: 63° Visibility: 10mi
Dew Point: 53° Wind: 3mph
Humidity: 70% Direction: 130° (SE)
Pressure: 29.51in Gusts: 0mph
Raw Report DataKCPS 240553Z AUTO 13003KT 10SM CLR 17/12 A2951 RMK AO2 SLP991 T01720117 10194 20156 402220078 56012 TSNO
Traffic Incident Summary
Active as of:
Severity:
Category:
InformationThere was an issue retrieving the traffic information for this location. Please try a different location or try again shortly.
Advertisements
Track Severe Weather on mobile